createdAt,value
2018-09-18T00:01:13.978Z,99.90
2018-09-18T00:03:42.221Z,99.90
2018-09-18T00:06:10.389Z,99.90
2018-09-18T00:08:38.583Z,99.90
2018-09-18T00:11:06.826Z,99.90
2018-09-18T00:13:35.063Z,99.90
2018-09-18T00:16:03.329Z,99.90
2018-09-18T00:18:31.762Z,99.90
2018-09-18T00:20:59.974Z,99.90
2018-09-18T00:23:28.420Z,99.90
2018-09-18T00:25:56.602Z,99.90
2018-09-18T00:28:24.810Z,99.90
2018-09-18T00:30:53.130Z,99.90
2018-09-18T00:33:21.314Z,99.90
2018-09-18T00:35:49.502Z,99.90
2018-09-18T00:38:17.692Z,99.90
2018-09-18T00:40:45.878Z,99.90
2018-09-18T00:43:14.050Z,99.90
2018-09-18T00:45:42.246Z,99.90
2018-09-18T00:48:10.430Z,99.90
2018-09-18T00:50:38.630Z,99.90
2018-09-18T00:53:06.797Z,99.90
2018-09-18T00:55:34.992Z,99.90
2018-09-18T00:58:03.258Z,99.90
2018-09-18T01:00:31.453Z,99.90
2018-09-18T01:02:59.618Z,99.90
2018-09-18T01:05:27.811Z,99.90
2018-09-18T01:07:55.990Z,99.90
2018-09-18T01:10:24.191Z,99.90
2018-09-18T01:12:52.373Z,99.90
2018-09-18T01:15:20.582Z,99.90
2018-09-18T01:17:48.878Z,99.90
2018-09-18T01:20:17.065Z,99.90
2018-09-18T01:22:45.252Z,99.90
2018-09-18T01:25:13.450Z,99.90
2018-09-18T01:27:41.638Z,99.90
2018-09-18T01:30:09.827Z,99.90
2018-09-18T01:32:38.008Z,99.90
2018-09-18T01:35:06.241Z,99.90
2018-09-18T01:37:34.415Z,99.90
2018-09-18T01:40:02.651Z,99.90
2018-09-18T01:42:30.895Z,99.90
2018-09-18T01:44:59.062Z,99.90
2018-09-18T01:47:27.287Z,99.90
2018-09-18T01:49:55.488Z,99.90
2018-09-18T01:52:23.702Z,99.90
2018-09-18T01:54:51.890Z,99.90
2018-09-18T01:57:20.098Z,99.90
2018-09-18T01:59:48.298Z,99.90
2018-09-18T02:02:16.501Z,99.90
2018-09-18T02:04:44.695Z,99.90
2018-09-18T02:07:12.904Z,99.90
2018-09-18T02:09:41.094Z,99.90
2018-09-18T02:12:09.298Z,99.90
2018-09-18T02:14:37.503Z,99.90
2018-09-18T02:17:05.727Z,99.90
2018-09-18T02:19:33.920Z,99.90
2018-09-18T02:22:02.139Z,99.90
2018-09-18T02:24:30.341Z,99.90
2018-09-18T02:26:58.559Z,99.90
2018-09-18T02:29:26.751Z,99.90
2018-09-18T02:31:54.954Z,99.90
2018-09-18T02:34:23.155Z,99.90
2018-09-18T02:36:51.366Z,99.90
2018-09-18T02:39:19.555Z,99.90
2018-09-18T02:41:47.742Z,99.90
2018-09-18T02:44:15.942Z,99.90
2018-09-18T02:46:44.163Z,99.90
2018-09-18T02:49:12.335Z,99.90
2018-09-18T02:51:40.530Z,99.90
2018-09-18T02:54:08.706Z,99.90
2018-09-18T02:56:36.890Z,99.90
2018-09-18T02:59:05.070Z,99.90
2018-09-18T03:01:33.250Z,99.90
2018-09-18T03:04:01.430Z,99.90
2018-09-18T03:06:29.614Z,99.90
2018-09-18T03:08:57.794Z,99.90
2018-09-18T03:11:26.077Z,99.90
2018-09-18T03:13:54.160Z,99.90
2018-09-18T03:16:22.355Z,99.90
2018-09-18T03:18:50.546Z,99.90
2018-09-18T03:21:18.714Z,99.90
2018-09-18T03:23:46.899Z,99.90
2018-09-18T03:26:15.076Z,99.90
2018-09-18T03:28:43.259Z,99.90
2018-09-18T03:31:11.440Z,99.90
2018-09-18T03:33:39.632Z,99.90
2018-09-18T03:36:08.039Z,99.90
2018-09-18T03:38:36.234Z,99.90
2018-09-18T03:41:04.414Z,99.90
2018-09-18T03:43:32.602Z,99.90
2018-09-18T03:46:00.778Z,99.90
2018-09-18T03:48:28.966Z,99.90
2018-09-18T03:50:57.147Z,99.90
2018-09-18T03:53:25.338Z,99.90
2018-09-18T03:55:53.514Z,99.90
2018-09-18T03:58:21.704Z,99.90
2018-09-18T04:00:49.883Z,99.90
2018-09-18T04:03:18.066Z,99.90
2018-09-18T04:05:46.247Z,99.90
2018-09-18T04:08:14.446Z,99.90
2018-09-18T04:10:42.617Z,99.90
2018-09-18T04:13:10.917Z,99.90
2018-09-18T04:15:40.262Z,99.90
2018-09-18T04:18:08.491Z,99.90
2018-09-18T04:20:36.667Z,99.90
2018-09-18T04:23:04.903Z,99.90
2018-09-18T04:25:33.086Z,99.90
2018-09-18T04:28:01.283Z,99.90
2018-09-18T04:30:29.457Z,99.90
2018-09-18T04:32:57.653Z,99.90
2018-09-18T04:35:25.830Z,99.90
2018-09-18T04:37:54.029Z,99.90
2018-09-18T04:40:22.230Z,99.90
2018-09-18T04:42:50.438Z,99.90
2018-09-18T04:45:18.638Z,99.90
2018-09-18T04:47:46.828Z,99.90
2018-09-18T04:50:15.042Z,99.90
2018-09-18T04:52:43.239Z,99.90
2018-09-18T04:55:11.455Z,99.90
2018-09-18T04:57:39.658Z,99.90
2018-09-18T05:00:08.446Z,99.90
2018-09-18T05:02:36.679Z,99.90
2018-09-18T05:05:05.449Z,99.90
2018-09-18T05:07:33.652Z,99.90
2018-09-18T05:10:01.868Z,99.90
2018-09-18T05:12:30.062Z,99.90
2018-09-18T05:14:58.274Z,99.90
2018-09-18T05:17:26.471Z,99.90
2018-09-18T05:19:54.678Z,99.90
2018-09-18T05:22:22.883Z,99.90
2018-09-18T05:24:51.106Z,99.90
2018-09-18T05:27:19.326Z,99.90
2018-09-18T05:29:47.539Z,99.90
2018-09-18T05:32:15.730Z,99.90
2018-09-18T05:34:43.967Z,99.90
2018-09-18T05:37:12.175Z,99.90
2018-09-18T05:39:40.407Z,99.90
2018-09-18T05:42:08.651Z,99.90
2018-09-18T05:44:36.818Z,99.90
2018-09-18T05:47:05.031Z,99.90
2018-09-18T05:49:33.247Z,99.90
2018-09-18T05:52:01.450Z,99.90
2018-09-18T05:54:29.659Z,99.90
2018-09-18T05:56:57.858Z,99.90
2018-09-18T05:59:26.080Z,99.90
2018-09-18T06:01:54.287Z,99.90
2018-09-18T06:04:22.503Z,99.90
2018-09-18T06:06:50.698Z,99.90
2018-09-18T06:09:18.898Z,99.90
2018-09-18T06:11:47.105Z,99.90
2018-09-18T06:14:15.317Z,99.90
2018-09-18T06:16:43.527Z,99.90
2018-09-18T06:19:11.751Z,99.90
2018-09-18T06:21:39.947Z,99.90
2018-09-18T06:24:08.387Z,99.90
2018-09-18T06:26:36.590Z,99.90
2018-09-18T06:29:04.800Z,99.90
2018-09-18T06:31:33.003Z,99.90
2018-09-18T06:34:01.218Z,99.90
2018-09-18T06:36:29.429Z,99.90
2018-09-18T06:38:57.642Z,99.90
2018-09-18T06:41:25.850Z,99.90
2018-09-18T06:43:54.259Z,99.90
2018-09-18T06:46:22.543Z,99.90
2018-09-18T06:48:50.738Z,99.90
2018-09-18T06:51:18.955Z,99.90
2018-09-18T06:53:47.138Z,99.90
2018-09-18T06:56:15.318Z,99.90
2018-09-18T06:58:43.755Z,99.90
2018-09-18T07:01:11.951Z,99.90
2018-09-18T07:03:40.130Z,99.90
2018-09-18T07:06:08.359Z,99.90
2018-09-18T07:08:36.552Z,99.90
2018-09-18T07:11:04.786Z,99.90
2018-09-18T07:13:32.971Z,99.90
2018-09-18T07:16:01.424Z,99.90
2018-09-18T07:18:29.602Z,99.90
2018-09-18T07:20:57.803Z,99.90
2018-09-18T07:23:26.019Z,99.90
2018-09-18T07:25:54.222Z,99.90
2018-09-18T07:28:22.406Z,99.90
2018-09-18T07:30:50.602Z,99.90
2018-09-18T07:33:18.791Z,99.90
2018-09-18T07:35:46.990Z,99.90
2018-09-18T07:38:15.189Z,99.90
2018-09-18T07:40:43.387Z,99.90
2018-09-18T07:43:11.572Z,99.90
2018-09-18T07:45:39.762Z,99.90
2018-09-18T07:48:07.942Z,99.90
2018-09-18T07:50:36.136Z,99.90
2018-09-18T07:53:04.321Z,99.90
2018-09-18T07:55:32.514Z,99.90
2018-09-18T07:58:00.722Z,99.90
2018-09-18T08:00:28.907Z,99.90
2018-09-18T08:02:57.112Z,99.90
2018-09-18T08:05:25.308Z,99.90
2018-09-18T08:07:53.523Z,99.90
2018-09-18T08:10:21.715Z,99.90
2018-09-18T08:12:49.915Z,99.90
2018-09-18T08:15:18.099Z,99.90
2018-09-18T08:17:46.299Z,99.90
2018-09-18T08:20:14.490Z,99.90
2018-09-18T08:22:42.779Z,99.90
2018-09-18T08:25:11.017Z,99.90
2018-09-18T08:27:39.168Z,99.90
2018-09-18T08:30:07.356Z,99.90
2018-09-18T08:32:35.581Z,99.90
2018-09-18T08:35:03.755Z,99.90
2018-09-18T08:37:31.952Z,99.90
2018-09-18T08:40:00.261Z,99.90
2018-09-18T08:42:28.358Z,99.90
2018-09-18T08:44:56.548Z,99.90
2018-09-18T08:47:24.738Z,99.90
2018-09-18T08:49:52.948Z,98.60
2018-09-18T08:52:21.147Z,94.40
2018-09-18T08:54:49.341Z,93.30
2018-09-18T08:57:17.539Z,88.90
2018-09-18T08:59:45.733Z,86.10
2018-09-18T09:02:13.979Z,83.70
2018-09-18T09:04:42.118Z,81.70
2018-09-18T09:07:10.327Z,78.30
2018-09-18T09:09:38.500Z,76.80
2018-09-18T09:12:06.831Z,70.60
2018-09-18T09:14:35.104Z,72.80
2018-09-18T09:17:03.214Z,72.60
2018-09-18T09:19:31.393Z,72.60
2018-09-18T09:21:59.728Z,72.30
2018-09-18T09:24:27.839Z,68.60
2018-09-18T09:26:56.103Z,69.00
2018-09-18T09:29:24.244Z,67.30
2018-09-18T09:31:52.420Z,64.10
2018-09-18T09:34:20.639Z,61.20
2018-09-18T09:36:48.886Z,62.10
2018-09-18T09:39:17.055Z,63.90
2018-09-18T09:41:45.262Z,62.20
2018-09-18T09:44:13.494Z,63.00
2018-09-18T09:46:41.709Z,61.00
2018-09-18T09:49:09.927Z,61.50
2018-09-18T09:51:38.211Z,60.90
2018-09-18T09:54:06.329Z,61.90
2018-09-18T09:56:34.525Z,59.10
2018-09-18T09:59:02.734Z,63.10
2018-09-18T10:01:36.410Z,61.30
2018-09-18T10:04:04.622Z,59.00
2018-09-18T10:06:32.826Z,57.70
2018-09-18T10:09:01.028Z,56.50
2018-09-18T10:11:29.222Z,55.80
2018-09-18T10:13:57.438Z,53.90
2018-09-18T10:16:25.630Z,55.40
2018-09-18T10:18:53.843Z,55.20
2018-09-18T10:21:22.033Z,54.70
2018-09-18T10:23:50.257Z,55.90
2018-09-18T10:26:18.618Z,55.90
2018-09-18T10:28:46.655Z,58.80
2018-09-18T10:31:14.871Z,58.00
2018-09-18T10:33:43.049Z,56.00
2018-09-18T10:36:11.246Z,59.80
2018-09-18T10:38:39.462Z,60.60
2018-09-18T10:41:07.783Z,58.20
2018-09-18T10:43:35.918Z,58.90
2018-09-18T10:46:04.113Z,56.90
2018-09-18T10:48:36.527Z,55.60
2018-09-18T10:51:04.693Z,55.40
2018-09-18T10:53:32.914Z,54.20
2018-09-18T10:56:01.089Z,54.60
2018-09-18T10:58:29.289Z,52.90
2018-09-18T11:00:57.463Z,53.60
2018-09-18T11:03:25.637Z,51.60
2018-09-18T11:05:53.851Z,52.50
2018-09-18T11:08:22.175Z,51.60
2018-09-18T11:10:50.433Z,50.50
2018-09-18T11:13:18.682Z,50.60
2018-09-18T11:15:46.869Z,51.40
2018-09-18T11:18:15.042Z,54.00
2018-09-18T11:20:43.182Z,52.50
2018-09-18T11:23:11.493Z,51.10
2018-09-18T11:25:39.737Z,52.80
2018-09-18T11:28:07.969Z,52.50
2018-09-18T11:30:36.166Z,51.00
2018-09-18T11:33:04.338Z,52.70
2018-09-18T11:35:32.526Z,51.20
2018-09-18T11:38:00.697Z,51.50
2018-09-18T11:40:28.922Z,49.90
2018-09-18T11:42:57.129Z,49.30
2018-09-18T11:45:25.358Z,48.50
2018-09-18T11:47:53.537Z,50.10
2018-09-18T11:50:21.740Z,52.00
2018-09-18T11:52:49.957Z,50.40
2018-09-18T11:55:18.146Z,53.80
2018-09-18T11:57:46.338Z,54.80
2018-09-18T12:00:14.534Z,53.00
2018-09-18T12:02:42.784Z,53.70
2018-09-18T12:05:11.013Z,54.20
2018-09-18T12:07:39.126Z,55.10
2018-09-18T12:10:07.330Z,54.50
2018-09-18T12:12:35.517Z,54.50
2018-09-18T12:15:03.725Z,54.50
2018-09-18T12:17:31.933Z,53.40
2018-09-18T12:20:00.125Z,55.30
2018-09-18T12:22:28.454Z,55.10
2018-09-18T12:24:56.554Z,56.00
2018-09-18T12:27:24.746Z,55.30
2018-09-18T12:29:52.938Z,54.00
2018-09-18T12:32:21.143Z,55.90
2018-09-18T12:34:49.334Z,55.40
2018-09-18T12:37:17.533Z,54.30
2018-09-18T12:39:45.738Z,56.70
2018-09-18T12:42:13.982Z,55.30
2018-09-18T12:44:42.133Z,55.60
2018-09-18T12:47:10.337Z,56.10
2018-09-18T12:49:38.611Z,56.80
2018-09-18T12:52:06.735Z,56.30
2018-09-18T12:54:34.921Z,57.30
2018-09-18T12:57:03.187Z,53.50
2018-09-18T12:59:31.375Z,53.30
2018-09-18T13:01:59.554Z,53.50
2018-09-18T13:04:27.755Z,53.30
2018-09-18T13:06:56.016Z,53.40
2018-09-18T13:09:24.158Z,54.60
2018-09-18T13:11:52.364Z,54.90
2018-09-18T13:14:20.558Z,56.20
2018-09-18T13:16:48.769Z,56.30
2018-09-18T13:19:16.962Z,57.10
2018-09-18T13:21:45.187Z,55.20
2018-09-18T13:24:13.369Z,54.30
2018-09-18T13:26:41.561Z,54.00
2018-09-18T13:29:09.754Z,54.00
2018-09-18T13:31:37.959Z,53.80
2018-09-18T13:34:06.551Z,54.60
2018-09-18T13:36:34.783Z,55.60
2018-09-18T13:39:02.960Z,55.40
2018-09-18T13:41:31.141Z,56.40
2018-09-18T13:43:59.319Z,57.50
2018-09-18T13:46:27.536Z,56.90
2018-09-18T13:48:55.693Z,56.70
2018-09-18T13:51:23.881Z,56.50
2018-09-18T13:53:52.049Z,57.50
2018-09-18T13:56:20.294Z,57.70
2018-09-18T13:58:48.418Z,57.90
2018-09-18T14:01:16.670Z,58.30
2018-09-18T14:03:44.790Z,57.60
2018-09-18T14:06:12.961Z,57.40
2018-09-18T14:08:41.146Z,57.00
2018-09-18T14:11:09.325Z,57.90
2018-09-18T14:13:37.502Z,58.30
2018-09-18T14:16:05.682Z,59.10
2018-09-18T14:18:33.870Z,58.60
2018-09-18T14:21:02.045Z,59.00
2018-09-18T14:23:30.238Z,58.90
2018-09-18T14:25:58.413Z,58.30
2018-09-18T14:28:26.618Z,57.20
2018-09-18T14:30:54.818Z,57.90
2018-09-18T14:33:23.013Z,58.30
2018-09-18T14:35:51.185Z,57.50
2018-09-18T14:38:19.395Z,57.10
2018-09-18T14:40:47.569Z,57.90
2018-09-18T14:43:15.748Z,58.20
2018-09-18T14:45:43.930Z,59.20
2018-09-18T14:48:12.116Z,59.40
2018-09-18T14:50:40.281Z,59.10
2018-09-18T14:53:08.474Z,59.50
2018-09-18T14:55:36.654Z,59.00
2018-09-18T14:58:04.834Z,59.50
2018-09-18T15:00:33.010Z,60.30
2018-09-18T15:03:01.204Z,60.20
2018-09-18T15:05:29.373Z,60.70
2018-09-18T15:07:57.558Z,61.40
2018-09-18T15:10:25.751Z,61.00
2018-09-18T15:12:54.047Z,61.20
2018-09-18T15:15:22.218Z,61.90
2018-09-18T15:17:50.397Z,63.10
2018-09-18T15:20:18.596Z,64.20
2018-09-18T15:22:46.802Z,64.30
2018-09-18T15:25:14.981Z,66.00
2018-09-18T15:27:43.150Z,66.80
2018-09-18T15:30:11.358Z,67.50
2018-09-18T15:32:39.542Z,68.20
2018-09-18T15:35:07.753Z,68.70
2018-09-18T15:37:35.942Z,69.50
2018-09-18T15:40:04.294Z,68.30
2018-09-18T15:42:32.405Z,69.60
2018-09-18T15:45:00.587Z,69.50
2018-09-18T15:47:28.814Z,70.90
2018-09-18T15:49:56.954Z,71.60
2018-09-18T15:52:25.129Z,71.60
2018-09-18T15:54:53.308Z,71.80
2018-09-18T15:57:21.530Z,69.60
2018-09-18T15:59:49.722Z,66.10
2018-09-18T16:02:17.906Z,69.40
2018-09-18T16:04:46.091Z,68.90
2018-09-18T16:07:14.270Z,70.00
2018-09-18T16:09:42.492Z,69.10
2018-09-18T16:12:10.655Z,68.80
2018-09-18T16:14:38.867Z,69.60
2018-09-18T16:17:07.055Z,66.50
2018-09-18T16:19:35.204Z,66.20
2018-09-18T16:22:03.425Z,72.00
2018-09-18T16:24:31.640Z,72.90
2018-09-18T16:26:59.813Z,73.90
2018-09-18T16:29:28.008Z,74.60
2018-09-18T16:31:56.197Z,76.20
2018-09-18T16:34:24.402Z,71.50
2018-09-18T16:36:52.606Z,73.10
2018-09-18T16:39:20.782Z,73.90
2018-09-18T16:41:48.981Z,76.60
2018-09-18T16:44:17.169Z,77.30
2018-09-18T16:46:45.388Z,78.10
2018-09-18T16:49:13.574Z,79.70
2018-09-18T16:51:41.784Z,80.30
2018-09-18T16:54:10.003Z,84.20
2018-09-18T16:56:38.202Z,90.10
2018-09-18T16:59:06.393Z,94.00
2018-09-18T17:01:34.643Z,96.90
2018-09-18T17:04:02.774Z,98.20
2018-09-18T17:06:31.048Z,98.80
2018-09-18T17:08:59.338Z,99.40
2018-09-18T17:11:27.525Z,99.90
2018-09-18T17:13:55.697Z,99.90
2018-09-18T17:16:23.921Z,99.90
2018-09-18T17:18:52.061Z,98.50
2018-09-18T17:21:20.340Z,96.20
2018-09-18T17:23:48.538Z,95.70
2018-09-18T17:26:16.727Z,96.50
2018-09-18T17:28:45.169Z,95.40
2018-09-18T17:31:13.187Z,95.50
2018-09-18T17:33:41.373Z,95.80
2018-09-18T17:36:09.586Z,95.20
2018-09-18T17:38:37.789Z,93.80
2018-09-18T17:41:07.155Z,92.20
2018-09-18T17:43:35.362Z,91.90
2018-09-18T17:46:03.581Z,92.70
2018-09-18T17:48:31.785Z,92.90
2018-09-18T17:50:59.978Z,93.50
2018-09-18T17:53:28.315Z,92.90
2018-09-18T17:55:56.470Z,92.40
2018-09-18T17:58:24.673Z,93.00
2018-09-18T18:00:52.866Z,92.60
2018-09-18T18:03:21.073Z,90.90
2018-09-18T18:05:49.268Z,90.30
2018-09-18T18:08:17.479Z,90.10
2018-09-18T18:10:45.682Z,90.70
2018-09-18T18:13:13.966Z,90.40
2018-09-18T18:15:42.157Z,90.70
2018-09-18T18:18:10.377Z,91.20
2018-09-18T18:20:38.663Z,91.70
2018-09-18T18:23:06.803Z,92.70
2018-09-18T18:25:34.998Z,91.60
2018-09-18T18:28:03.202Z,91.30
2018-09-18T18:30:31.507Z,89.30
2018-09-18T18:32:59.716Z,87.80
2018-09-18T18:35:27.928Z,91.20
2018-09-18T18:37:56.129Z,92.10
2018-09-18T18:40:24.327Z,92.40
2018-09-18T18:42:52.508Z,92.80
2018-09-18T18:45:20.671Z,92.90
2018-09-18T18:47:48.963Z,92.30
2018-09-18T18:50:17.094Z,84.00
2018-09-18T18:52:45.294Z,84.40
2018-09-18T18:55:13.471Z,90.40
2018-09-18T18:57:41.654Z,91.30
2018-09-18T19:00:09.909Z,81.10
2018-09-18T19:02:38.110Z,77.60
2018-09-18T19:05:06.324Z,79.30
2018-09-18T19:07:34.501Z,84.80
2018-09-18T19:10:02.696Z,86.60
2018-09-18T19:12:30.873Z,83.90
2018-09-18T19:14:59.057Z,86.10
2018-09-18T19:17:27.234Z,89.40
2018-09-18T19:19:55.431Z,89.40
2018-09-18T19:22:23.605Z,90.20
2018-09-18T19:24:51.786Z,91.00
2018-09-18T19:27:19.973Z,91.80
2018-09-18T19:29:48.168Z,92.00
2018-09-18T19:32:16.360Z,92.70
2018-09-18T19:34:44.545Z,92.60
2018-09-18T19:37:12.729Z,93.60
2018-09-18T19:39:40.958Z,94.30
2018-09-18T19:42:09.172Z,94.10
2018-09-18T19:44:37.384Z,94.90
2018-09-18T19:47:05.583Z,95.40
2018-09-18T19:49:38.077Z,96.40
2018-09-18T19:52:06.568Z,97.60
2018-09-18T19:54:34.767Z,98.40
2018-09-18T19:57:03.029Z,99.40
2018-09-18T19:59:31.239Z,99.70
2018-09-18T20:01:59.441Z,99.90
2018-09-18T20:04:27.759Z,99.90
2018-09-18T20:06:56.026Z,99.90
2018-09-18T20:09:24.293Z,99.90
2018-09-18T20:11:52.453Z,99.90
2018-09-18T20:14:20.667Z,99.90
2018-09-18T20:16:48.882Z,99.90
2018-09-18T20:19:17.112Z,99.90
2018-09-18T20:21:45.322Z,99.90
2018-09-18T20:24:13.544Z,99.90
2018-09-18T20:26:41.752Z,99.90
2018-09-18T20:29:10.084Z,99.90
2018-09-18T20:31:38.289Z,99.90
2018-09-18T20:34:06.743Z,99.90
2018-09-18T20:36:34.947Z,99.90
2018-09-18T20:39:03.158Z,99.90
2018-09-18T20:41:31.400Z,99.90
2018-09-18T20:43:59.587Z,99.90
2018-09-18T20:46:27.824Z,99.90
2018-09-18T20:48:56.019Z,99.90
2018-09-18T20:51:24.224Z,99.90
2018-09-18T20:53:52.422Z,99.90
2018-09-18T20:56:20.634Z,99.90
2018-09-18T20:58:48.843Z,99.90
2018-09-18T21:01:17.073Z,99.90
2018-09-18T21:03:45.267Z,99.90
2018-09-18T21:06:13.471Z,99.90
2018-09-18T21:08:41.742Z,99.90
2018-09-18T21:11:09.925Z,99.90
2018-09-18T21:13:38.139Z,99.90
2018-09-18T21:16:06.344Z,99.90
2018-09-18T21:18:34.551Z,99.90
2018-09-18T21:21:03.612Z,99.90
2018-09-18T21:23:32.074Z,99.90
2018-09-18T21:26:02.612Z,99.90
2018-09-18T21:28:30.829Z,99.90
2018-09-18T21:30:59.059Z,99.90
2018-09-18T21:33:27.276Z,99.90
2018-09-18T21:35:55.475Z,99.90
2018-09-18T21:38:23.686Z,99.90
2018-09-18T21:40:51.862Z,99.90
2018-09-18T21:43:20.054Z,99.90
2018-09-18T21:45:48.686Z,99.90
2018-09-18T21:48:16.932Z,99.90
2018-09-18T21:50:45.092Z,99.90
2018-09-18T21:53:14.176Z,99.90
2018-09-18T21:55:43.042Z,99.90
2018-09-18T21:58:11.354Z,99.90
2018-09-18T22:00:39.652Z,99.90
2018-09-18T22:03:08.061Z,99.90
2018-09-18T22:05:36.243Z,99.90
2018-09-18T22:08:04.548Z,99.90
2018-09-18T22:10:32.721Z,99.90
2018-09-18T22:13:01.713Z,99.90
2018-09-18T22:15:30.500Z,99.90
2018-09-18T22:17:58.693Z,99.90
2018-09-18T22:20:26.874Z,99.90
2018-09-18T22:22:55.058Z,99.90
2018-09-18T22:25:23.907Z,99.90
2018-09-18T22:27:52.492Z,99.90
2018-09-18T22:30:20.671Z,99.90
2018-09-18T22:32:48.864Z,99.90
2018-09-18T22:35:17.043Z,99.90
2018-09-18T22:37:45.239Z,99.90
2018-09-18T22:40:13.444Z,99.90
2018-09-18T22:42:41.645Z,99.90
2018-09-18T22:45:10.642Z,99.90
2018-09-18T22:47:38.826Z,99.90
2018-09-18T22:50:06.997Z,99.90
2018-09-18T22:52:35.178Z,99.90
2018-09-18T22:55:03.346Z,99.90
2018-09-18T22:57:31.614Z,99.90
2018-09-18T22:59:59.741Z,99.90
2018-09-18T23:02:27.919Z,99.90
2018-09-18T23:04:56.111Z,99.90
2018-09-18T23:07:24.283Z,99.90
2018-09-18T23:09:52.484Z,99.90
2018-09-18T23:12:20.649Z,99.90
2018-09-18T23:14:48.858Z,99.90
2018-09-18T23:17:17.044Z,99.90
2018-09-18T23:19:45.234Z,99.90
2018-09-18T23:22:13.419Z,99.90
2018-09-18T23:24:41.683Z,99.90
2018-09-18T23:27:09.904Z,99.90
2018-09-18T23:29:38.054Z,99.90
2018-09-18T23:32:06.276Z,99.90
2018-09-18T23:34:34.499Z,99.90
2018-09-18T23:37:02.681Z,99.90
2018-09-18T23:39:30.899Z,99.90
2018-09-18T23:41:59.138Z,99.90
2018-09-18T23:44:27.535Z,99.90
2018-09-18T23:46:55.718Z,99.90
2018-09-18T23:49:23.915Z,99.90
2018-09-18T23:51:52.139Z,99.90
2018-09-18T23:54:20.357Z,99.90
2018-09-18T23:56:48.538Z,99.90
2018-09-18T23:59:16.732Z,99.90
